Straw, Montana
Current Conditions -  °F | °C
As of 4:54 AM on Sunday 23 Nov 2014 (Local Time) from KLWT Reporting Station
Scattered Clouds Scattered Clouds  
Wind Chill: 24°   Ceiling: Unl
Heat Index: 31°   Visibility: 10mi
Dew Point: 20°   Wind: 7mph
Humidity: 64%   Direction: 330°NNW
Pressure: 29.78"   Gusts: NA
Location:  46.8407°N, 109.712°W
Report Text: KLWT 231154Z AUTO 33006KT 10SM FEW065 SCT090 M01/M07 A2978 RMK AO2 SLP102 T10061067 10022 21006 51031
Loading
Personal Weather Stations






























Interactive Weather Map New forecast layout! Learn more

10-Day Weather Forecast

Advertisements
Track Severe Weather on mobile